PWSweather.com
Personal Weather Stations
Station Observations
BLACKWELL
Blackwell, AlfretonGB DE55

BlackwellAlfretonGB DE55

Lat: 53.12076, Lon: -1.354978

Elevation: 410

Station Type: Vantage Pro

High Low Average
Temperature 68.9°F20.5°C 60.6°F15.9°C 64.9°F18.3°C
Dew Point 63.5°F17.5°C 57.2°F14.0°C 60.4°F15.8°C
Winds 1.0 mph 1.6 kmh Calm Calm Calm SSECalm SSE
Wind Gusts 6.0 mph9.7 kmh -- 3.0 mph4.8 kmh
Humidity 94% 79% 85%
Pressure 30.07 in1018.3 mb 29.91 in1012.9 mb -
Precipitation 0.02 in0.5 mm - -
Hour Temp Dew Point Humidity Winds Wind Gusts Pressure Precip Precip Rate Daily Precip Total
12:02 AM 65.8°F18.8°C 61.3°F16.3°C 85% Calm Calm 1.0 mph1.6 kmh 30.02 in1016.6 mb 0.00 in0.0 mm 0.00 in0.0 mm 0.00 in0.0 mm
01:02 AM 65.5°F18.6°C 61.2°F16.2°C 86% Calm Calm 2.0 mph3.2 kmh 30.01 in1016.3 mb 0.00 in0.0 mm 0.00 in0.0 mm 0.00 in0.0 mm
02:02 AM 64.2°F17.9°C 60.6°F15.9°C 88% Calm Calm 5.0 mph8.0 kmh 30.00 in1015.9 mb 0.00 in0.0 mm 0.00 in0.0 mm 0.00 in0.0 mm
03:02 AM 63.9°F17.7°C 60.4°F15.8°C 89% 1.0 mph S1.6 kmh S 6.0 mph9.7 kmh 29.97 in1014.9 mb 0.00 in0.0 mm 0.00 in0.0 mm 0.00 in0.0 mm
04:02 AM 64.0°F17.8°C 60.4°F15.8°C 88% 1.0 mph SW1.6 kmh SW 5.0 mph8.0 kmh 29.94 in1013.9 mb 0.00 in0.0 mm 0.00 in0.0 mm 0.00 in0.0 mm
05:02 AM 63.7°F17.6°C 59.9°F15.5°C 88% 1.0 mph S1.6 kmh S 5.0 mph8.0 kmh 29.93 in1013.5 mb 0.00 in0.0 mm 0.00 in0.0 mm 0.00 in0.0 mm
06:02 AM 63.7°F17.6°C 59.4°F15.2°C 86% Calm Calm 3.0 mph4.8 kmh 29.92 in1013.2 mb 0.00 in0.0 mm 0.00 in0.0 mm 0.00 in0.0 mm
07:02 AM 63.3°F17.4°C 59.2°F15.1°C 86% Calm Calm 6.0 mph9.7 kmh 29.91 in1012.9 mb 0.00 in0.0 mm 0.00 in0.0 mm 0.00 in0.0 mm
08:02 AM 61.9°F16.6°C 59.9°F15.5°C 93% Calm Calm 3.0 mph4.8 kmh 29.92 in1013.2 mb 0.01 in0.3 mm 0.00 in0.0 mm 0.01 in0.3 mm
09:02 AM 63.1°F17.3°C 61.3°F16.3°C 94% Calm Calm 4.0 mph6.4 kmh 29.93 in1013.5 mb 0.00 in0.0 mm 0.00 in0.0 mm 0.01 in0.3 mm
10:02 AM 64.6°F18.1°C 62.6°F17.0°C 93% 1.0 mph S1.6 kmh S 5.0 mph8.0 kmh 29.94 in1013.9 mb 0.00 in0.0 mm 0.00 in0.0 mm 0.01 in0.3 mm
11:02 AM 68.7°F20.4°C 63.5°F17.5°C 83% 1.0 mph S1.6 kmh S 6.0 mph9.7 kmh 29.94 in1013.9 mb 0.01 in0.3 mm 0.00 in0.0 mm 0.02 in0.5 mm
12:02 PM 67.6°F19.8°C 62.1°F16.7°C 82% Calm Calm 4.0 mph6.4 kmh 29.96 in1014.6 mb 0.00 in0.0 mm 0.00 in0.0 mm 0.02 in0.5 mm
01:02 PM 67.8°F19.9°C 61.3°F16.3°C 80% Calm Calm 2.0 mph3.2 kmh 29.97 in1014.9 mb 0.00 in0.0 mm 0.00 in0.0 mm 0.02 in0.5 mm
02:04 PM 68.9°F20.5°C 62.1°F16.7°C 79% Calm Calm 2.0 mph3.2 kmh 29.98 in1015.2 mb 0.00 in0.0 mm 0.00 in0.0 mm 0.02 in0.5 mm
03:02 PM 68.4°F20.2°C 61.7°F16.5°C 79% Calm Calm 3.0 mph4.8 kmh 29.99 in1015.6 mb 0.00 in0.0 mm 0.00 in0.0 mm 0.02 in0.5 mm
04:02 PM 67.1°F19.5°C 61.2°F16.2°C 81% Calm Calm 5.0 mph8.0 kmh 30.02 in1016.6 mb 0.00 in0.0 mm 0.00 in0.0 mm 0.02 in0.5 mm
05:02 PM 67.3°F19.6°C 60.8°F16.0°C 80% Calm Calm 2.0 mph3.2 kmh 30.02 in1016.6 mb 0.00 in0.0 mm 0.00 in0.0 mm 0.02 in0.5 mm
06:02 PM 66.0°F18.9°C 60.1°F15.6°C 81% 1.0 mph S1.6 kmh S 6.0 mph9.7 kmh 30.03 in1016.9 mb 0.00 in0.0 mm 0.00 in0.0 mm 0.02 in0.5 mm
07:02 PM 65.1°F18.4°C 59.5°F15.3°C 82% Calm Calm -- 30.05 in1017.6 mb 0.00 in0.0 mm 0.00 in0.0 mm 0.02 in0.5 mm
08:02 PM 63.9°F17.7°C 58.6°F14.8°C 83% Calm Calm 2.0 mph3.2 kmh 30.07 in1018.3 mb 0.00 in0.0 mm 0.00 in0.0 mm 0.02 in0.5 mm
09:02 PM 61.9°F16.6°C 57.9°F14.4°C 87% Calm Calm 1.0 mph1.6 kmh 30.07 in1018.3 mb 0.00 in0.0 mm 0.00 in0.0 mm 0.02 in0.5 mm
10:02 PM 60.6°F15.9°C 57.2°F14.0°C 88% Calm Calm -- 30.07 in1018.3 mb 0.00 in0.0 mm 0.00 in0.0 mm 0.02 in0.5 mm
11:02 PM 60.6°F15.9°C 57.4°F14.1°C 89% Calm Calm -- 30.07 in1018.3 mb 0.00 in0.0 mm 0.00 in0.0 mm 0.02 in0.5 mm